Time;durP1;ratioP1;P1;durP2;ratioP2;P2;SDS_P1;SDS_P2;PMS_P1;PMS_P2;Temp;Humidity;BMP_temperature;BMP_pressure;BME280_temperature;BME280_humidity;BME280_pressure;Samples;Min_cycle;Max_cycle;Signal;HPM_P1;HPM_P2
2022/01/16 00:04:43;;;;;;;58.93;20.40;;;;;;;13.56;42.56;102401.22;5130013;28;20038;-68
2022/01/16 00:07:09;;;;;;;67.47;20.27;;;;;;;12.90;44.07;102380.81;5115546;28;20043;-68
2022/01/16 00:09:35;;;;;;;68.53;20.70;;;;;;;13.86;42.59;102378.47;5102637;28;20087;-68
2022/01/16 00:12:05;;;;;;;54.67;19.40;;;;;;;13.94;42.30;102383.75;5114697;27;20076;-68
2022/01/16 00:14:30;;;;;;;58.33;20.43;;;;;;;13.66;42.53;102395.09;5115082;27;20019;-68
2022/01/16 00:16:57;;;;;;;67.83;21.67;;;;;;;13.90;43.11;102396.91;5114938;27;20092;-68
2022/01/16 00:19:23;;;;;;;61.60;21.53;;;;;;;13.83;42.83;102389.00;5121399;27;20035;-68
2022/01/16 00:21:48;;;;;;;61.03;21.13;;;;;;;14.10;42.24;102387.28;5094660;28;20505;-68
2022/01/16 00:24:13;;;;;;;65.10;20.80;;;;;;;14.58;40.61;102385.47;5125378;27;20041;-68
2022/01/16 00:26:40;;;;;;;68.53;21.43;;;;;;;14.85;40.38;102374.03;5115331;27;20035;-68
2022/01/16 00:29:07;;;;;;;61.17;20.87;;;;;;;15.62;38.41;102372.78;5106788;27;20352;-68
2022/01/16 00:31:35;;;;;;;58.07;19.60;;;;;;;15.18;39.28;102379.13;5132797;27;20023;-68
2022/01/16 00:34:00;;;;;;;67.20;23.23;;;;;;;15.15;39.73;102377.41;5114777;27;20095;-68
2022/01/16 00:36:26;;;;;;;58.83;21.37;;;;;;;15.40;39.57;102380.78;5115065;27;20471;-68
2022/01/16 00:38:53;;;;;;;67.40;21.23;;;;;;;15.30;39.84;102386.13;5104324;27;20058;-68
2022/01/16 00:41:20;;;;;;;68.90;21.83;;;;;;;15.03;40.92;102378.34;5094825;28;20031;-68
2022/01/16 00:43:47;;;;;;;73.03;21.67;;;;;;;14.91;39.88;102378.38;5131252;27;20034;-68
2022/01/16 00:46:13;;;;;;;70.90;19.57;;;;;;;14.93;40.74;102381.88;5114031;27;20046;-68
2022/01/16 00:48:38;;;;;;;71.03;21.63;;;;;;;15.03;40.57;102385.34;5098213;28;20015;-68
2022/01/16 00:51:04;;;;;;;69.20;21.77;;;;;;;14.55;41.05;102385.47;5094407;28;20055;-68
2022/01/16 00:53:29;;;;;;;69.73;21.87;;;;;;;14.36;41.29;102374.97;5108300;27;20035;-68
2022/01/16 00:55:55;;;;;;;77.53;22.27;;;;;;;14.48;41.26;102368.81;5133146;27;20054;-68
2022/01/16 00:58:20;;;;;;;74.27;20.73;;;;;;;13.86;42.25;102379.38;5131611;27;20103;-68
2022/01/16 01:00:47;;;;;;;60.37;18.70;;;;;;;12.46;45.95;102365.69;5113912;27;20046;-68
2022/01/16 01:03:13;;;;;;;59.33;19.67;;;;;;;11.84;47.84;102345.09;5113948;27;20019;-68
2022/01/16 01:05:38;;;;;;;74.97;20.73;;;;;;;12.75;45.87;102331.75;5114513;27;20027;-68
2022/01/16 01:08:04;;;;;;;70.10;19.37;;;;;;;12.15;47.42;102341.88;5131720;27;20402;-68
2022/01/16 01:10:35;;;;;;;67.07;17.50;;;;;;;13.34;45.00;102353.84;5111974;27;20034;-68
2022/01/16 01:13:21;;;;;;;80.93;21.07;;;;;;;12.14;49.04;102337.50;5119374;27;20029;-69
2022/01/16 01:15:49;;;;;;;77.90;21.00;;;;;;;13.43;44.17;102363.53;5133239;27;20023;-68
2022/01/16 01:18:16;;;;;;;69.63;20.23;;;;;;;12.21;48.26;102361.16;5113641;27;20507;-68
2022/01/16 01:20:43;;;;;;;83.83;24.17;;;;;;;14.58;43.17;102359.16;5113286;27;20051;-68
2022/01/16 01:23:10;;;;;;;92.97;24.23;;;;;;;15.56;40.07;102335.91;5113190;27;20019;-68
2022/01/16 01:25:37;;;;;;;98.07;24.87;;;;;;;15.24;40.90;102347.53;5131700;27;20027;-68
2022/01/16 01:28:03;;;;;;;92.60;22.37;;;;;;;13.97;43.11;102332.06;5131465;27;20118;-68
2022/01/16 01:30:29;;;;;;;91.03;22.80;;;;;;;14.65;42.16;102350.38;5114018;27;20015;-68
2022/01/16 01:32:55;;;;;;;92.43;24.83;;;;;;;15.87;39.86;102356.81;5113300;27;20085;-67
2022/01/16 01:35:21;;;;;;;91.73;24.60;;;;;;;15.55;40.68;102349.94;5092671;27;20065;-68
2022/01/16 01:37:47;;;;;;;93.37;24.30;;;;;;;15.10;41.48;102366.91;5132785;27;20070;-68
2022/01/16 01:40:16;;;;;;;91.73;26.90;;;;;;;16.16;38.95;102316.13;5113882;27;20126;-68
2022/01/16 01:42:50;;;;;;;102.70;25.33;;;;;;;15.88;40.77;102289.97;5119101;27;20051;-68
2022/01/16 01:51:07;;;;;;;114.87;26.93;;;;;;;16.17;39.19;102286.19;5129390;27;20123;-68
2022/01/16 01:53:32;;;;;;;99.87;27.07;;;;;;;16.11;39.41;102293.28;5094408;27;20043;-68
2022/01/16 01:55:58;;;;;;;94.20;25.20;;;;;;;16.41;38.77;102320.22;5130286;27;20035;-68
2022/01/16 01:58:24;;;;;;;100.73;27.00;;;;;;;15.81;40.14;102341.03;5131412;27;20019;-68
2022/01/16 02:00:50;;;;;;;112.63;28.23;;;;;;;16.39;38.75;102329.03;5112870;27;20575;-68
2022/01/16 02:05:42;;;;;;;103.07;26.83;;;;;;;16.62;38.17;102347.28;5114496;27;20045;-68
2022/01/16 02:08:09;;;;;;;108.57;27.60;;;;;;;16.34;39.06;102355.50;5093669;28;20114;-68
2022/01/16 02:10:39;;;;;;;109.73;27.23;;;;;;;16.55;39.12;102366.72;5109584;27;20054;-68
2022/01/16 02:13:07;;;;;;;106.10;29.07;;;;;;;16.38;38.97;102375.69;5128394;27;20019;-68
2022/01/16 02:31:46;;;;;;;92.13;26.33;;;;;;;15.13;41.56;102363.38;5130876;27;20058;-68
2022/01/16 02:37:00;;;;;;;91.60;25.73;;;;;;;16.97;38.01;102353.94;5129436;27;20070;-68
2022/01/16 02:39:27;;;;;;;92.53;28.47;;;;;;;15.85;39.23;102361.19;5093388;28;20483;-68
2022/01/16 02:41:54;;;;;;;86.97;27.43;;;;;;;16.26;39.31;102359.97;5111156;27;20114;-68
2022/01/16 02:44:32;;;;;;;83.70;26.43;;;;;;;16.94;37.91;102348.72;5130280;27;20025;-67
2022/01/16 02:46:58;;;;;;;81.77;25.47;;;;;;;16.06;39.53;102350.47;5098200;27;20023;-67
2022/01/16 02:49:27;;;;;;;77.77;24.70;;;;;;;16.67;37.73;102340.19;5111542;28;20040;-67
2022/01/16 02:52:03;;;;;;;78.03;27.50;;;;;;;15.49;40.87;102350.00;5096723;27;20480;-67
2022/01/16 02:54:31;;;;;;;73.87;25.27;;;;;;;16.14;38.32;102336.34;5110549;28;20065;-67
2022/01/16 02:56:56;;;;;;;79.17;24.67;;;;;;;15.41;40.18;102340.41;5102669;27;20510;-67
2022/01/16 02:59:22;;;;;;;70.23;24.80;;;;;;;16.53;38.04;102336.84;5096228;28;20035;-67
2022/01/16 03:01:48;;;;;;;71.47;25.87;;;;;;;16.69;37.52;102322.56;5119846;27;20089;-67
2022/01/16 03:04:16;;;;;;;71.90;24.97;;;;;;;14.65;41.38;102323.22;5112439;27;20027;-66
2022/01/16 03:06:41;;;;;;;81.03;27.03;;;;;;;15.53;39.64;102331.53;5121463;27;20090;-67
2022/01/16 03:09:08;;;;;;;79.50;25.70;;;;;;;15.72;39.52;102316.44;5109975;28;20295;-67
2022/01/16 03:11:36;;;;;;;75.40;26.07;;;;;;;16.61;37.67;102308.59;5098336;27;20363;-67
2022/01/16 03:14:08;;;;;;;73.60;25.77;;;;;;;16.28;37.74;102310.72;5130046;27;20481;-67
2022/01/16 03:16:33;;;;;;;85.43;25.83;;;;;;;16.84;36.81;102304.78;5111935;28;20080;-67
2022/01/16 03:21:57;;;;;;;75.33;25.80;;;;;;;16.43;37.54;102286.78;5128010;28;22005;-67
2022/01/16 03:24:28;;;;;;;68.70;24.17;;;;;;;16.52;37.60;102290.22;5130146;28;20063;-67
2022/01/16 03:26:56;;;;;;;71.87;26.40;;;;;;;16.85;36.64;102301.25;5103328;28;20080;-67
2022/01/16 03:29:21;;;;;;;65.93;23.20;;;;;;;16.33;37.94;102293.06;5129971;28;20023;-67
2022/01/16 03:31:47;;;;;;;72.40;26.07;;;;;;;16.14;37.96;102296.78;5130231;28;20038;-67
2022/01/16 03:34:13;;;;;;;67.17;25.90;;;;;;;16.27;37.45;102293.13;5110521;28;20019;-67
2022/01/16 03:36:38;;;;;;;70.63;24.87;;;;;;;16.78;36.66;102287.25;5130547;28;20054;-67
2022/01/16 03:39:04;;;;;;;70.93;25.60;;;;;;;16.00;37.61;102289.88;5111288;28;20031;-67
2022/01/16 03:41:30;;;;;;;68.33;25.03;;;;;;;16.72;36.52;102280.28;5126795;28;20031;-67
2022/01/16 03:44:02;;;;;;;73.43;25.20;;;;;;;16.81;36.61;102279.28;5110919;27;20015;-67
2022/01/16 03:46:35;;;;;;;66.60;26.97;;;;;;;16.17;38.10;102275.63;5114850;27;20114;-67
2022/01/16 03:49:04;;;;;;;64.20;23.30;;;;;;;16.36;36.85;102274.56;5133510;27;20023;-67
2022/01/16 03:51:30;;;;;;;64.83;23.50;;;;;;;16.67;36.68;102276.81;5115420;27;20061;-67
2022/01/16 03:53:55;;;;;;;66.70;24.90;;;;;;;16.27;37.27;102282.56;5115182;27;20050;-67
2022/01/16 03:56:21;;;;;;;64.97;23.80;;;;;;;16.76;36.22;102284.63;5114489;27;20035;-67
2022/01/16 03:58:46;;;;;;;64.67;24.33;;;;;;;15.77;38.76;102283.03;5097511;27;20027;-67
2022/01/16 04:01:11;;;;;;;68.27;22.97;;;;;;;16.16;37.37;102284.47;5114825;27;20092;-67
2022/01/16 04:03:37;;;;;;;63.57;25.07;;;;;;;15.33;38.75;102292.16;5114529;27;20470;-67
2022/01/16 04:06:02;;;;;;;64.73;25.30;;;;;;;15.97;37.71;102284.63;5133384;27;20500;-67
2022/01/16 04:08:28;;;;;;;63.13;23.23;;;;;;;15.66;38.38;102290.16;5115581;27;20031;-67
2022/01/16 04:10:53;;;;;;;58.20;23.10;;;;;;;16.16;37.63;102280.03;5110992;27;20027;-66
2022/01/16 04:13:20;;;;;;;60.90;23.80;;;;;;;16.70;36.61;102282.06;5112086;28;20020;-67
2022/01/16 04:15:46;;;;;;;58.63;22.70;;;;;;;16.73;36.82;102274.13;5111693;27;20064;-67
2022/01/16 04:18:11;;;;;;;57.47;23.47;;;;;;;15.73;37.97;102275.13;5133051;27;20023;-67
2022/01/16 04:20:36;;;;;;;61.23;23.87;;;;;;;15.09;39.53;102278.22;5113943;27;20051;-67
2022/01/16 04:23:03;;;;;;;66.47;23.70;;;;;;;15.95;38.50;102278.50;5131877;27;20039;-67
2022/01/16 04:25:29;;;;;;;55.57;23.10;;;;;;;15.33;39.57;102276.34;5107268;27;20499;-67
2022/01/16 04:27:54;;;;;;;58.40;24.03;;;;;;;15.46;39.12;102276.25;5115313;27;20138;-67
2022/01/16 04:30:20;;;;;;;61.97;23.50;;;;;;;16.20;37.68;102270.34;5132156;27;20033;-67
2022/01/16 04:32:45;;;;;;;58.47;23.50;;;;;;;16.15;37.58;102272.16;5133667;27;20532;-67
2022/01/16 04:35:11;;;;;;;66.67;24.43;;;;;;;16.04;37.43;102275.75;5113369;27;20023;-67
2022/01/16 04:37:36;;;;;;;63.93;23.90;;;;;;;15.69;38.15;102271.66;5132866;27;20019;-67
2022/01/16 04:40:04;;;;;;;57.90;22.17;;;;;;;16.23;37.36;102265.91;5132853;27;20080;-68
2022/01/16 04:45:14;;;;;;;62.00;22.90;;;;;;;16.43;37.01;102270.97;5129928;27;20118;-68
2022/01/16 04:47:42;;;;;;;60.90;22.93;;;;;;;16.52;36.90;102267.31;5133496;27;20110;-68
2022/01/16 04:50:11;;;;;;;61.77;24.13;;;;;;;16.73;36.42;102254.75;5132736;27;20038;-68
2022/01/16 04:52:37;;;;;;;62.53;22.53;;;;;;;17.14;35.47;102261.25;5114324;27;20031;-68
2022/01/16 04:55:02;;;;;;;60.00;24.63;;;;;;;17.04;36.08;102260.50;5131318;27;20019;-67
2022/01/16 04:57:28;;;;;;;56.53;22.73;;;;;;;17.00;35.92;102263.22;5114139;27;20034;-68
2022/01/16 04:59:53;;;;;;;52.43;21.53;;;;;;;16.86;36.53;102255.47;5132132;27;20042;-68
2022/01/16 05:02:18;;;;;;;51.27;21.10;;;;;;;16.74;36.86;102257.38;5114791;27;20466;-67
2022/01/16 05:04:44;;;;;;;63.77;23.03;;;;;;;16.60;36.94;102269.88;5113699;27;20114;-68
2022/01/16 05:07:09;;;;;;;53.10;21.27;;;;;;;17.13;35.82;102275.34;5093444;28;20138;-68
2022/01/16 05:09:34;;;;;;;46.27;20.57;;;;;;;17.20;36.10;102268.22;5109285;27;20035;-67
2022/01/16 05:12:02;;;;;;;56.80;21.53;;;;;;;16.11;38.81;102261.66;5132804;27;20066;-68
2022/01/16 05:17:12;;;;;;;47.37;19.07;;;;;;;15.84;39.39;102261.91;5129539;27;20066;-68
2022/01/16 05:19:37;;;;;;;47.97;20.10;;;;;;;17.34;36.76;102266.25;5109295;27;20500;-67
2022/01/16 05:22:03;;;;;;;45.63;19.80;;;;;;;17.80;35.83;102265.47;5113708;27;20411;-68
2022/01/16 05:24:32;;;;;;;48.80;20.23;;;;;;;16.10;38.50;102265.16;5131910;27;20031;-68
2022/01/16 05:26:58;;;;;;;45.63;19.67;;;;;;;16.37;37.74;102251.69;5111495;27;20042;-68
2022/01/16 05:29:23;;;;;;;49.40;19.73;;;;;;;17.11;37.12;102267.44;5106427;27;20027;-68
2022/01/16 05:31:49;;;;;;;47.90;19.47;;;;;;;17.28;36.63;102261.03;5132608;27;20031;-67
2022/01/16 05:34:18;;;;;;;46.27;19.37;;;;;;;17.23;36.77;102265.53;5112941;27;20031;-68
2022/01/16 05:36:43;;;;;;;42.97;19.03;;;;;;;16.31;37.84;102257.91;5113831;27;20088;-68
2022/01/16 05:39:09;;;;;;;40.17;17.67;;;;;;;16.38;38.19;102264.00;5113282;27;20024;-68
2022/01/16 05:41:34;;;;;;;39.07;18.07;;;;;;;16.19;38.62;102263.31;5093387;28;20024;-67
2022/01/16 05:44:00;;;;;;;43.93;19.03;;;;;;;17.20;37.06;102265.56;5100480;27;20028;-68
2022/01/16 05:46:25;;;;;;;39.23;17.60;;;;;;;17.20;36.63;102261.16;5131748;27;20482;-67
2022/01/16 05:48:50;;;;;;;37.83;18.23;;;;;;;16.08;38.09;102261.66;5111281;27;20058;-68
2022/01/16 05:51:16;;;;;;;39.87;15.60;;;;;;;16.96;38.05;102265.03;5125338;27;20588;-67
2022/01/16 05:53:44;;;;;;;38.17;16.30;;;;;;;16.54;37.79;102276.13;5113514;27;20086;-68
2022/01/16 05:56:09;;;;;;;40.23;15.93;;;;;;;16.79;38.59;102271.38;5113003;27;20023;-67
2022/01/16 05:58:35;;;;;;;38.17;16.13;;;;;;;17.13;37.37;102278.88;5113058;27;20042;-67
2022/01/16 06:01:00;;;;;;;31.87;14.30;;;;;;;16.38;38.28;102272.78;5098567;28;20034;-68
2022/01/16 06:03:25;;;;;;;29.83;14.77;;;;;;;17.41;36.58;102267.88;5092113;28;20486;-67
2022/01/16 06:05:51;;;;;;;30.80;14.13;;;;;;;16.16;38.91;102268.63;5112877;27;20031;-67
2022/01/16 06:08:16;;;;;;;35.00;13.53;;;;;;;16.77;37.92;102262.63;5130398;27;20035;-68
2022/01/16 06:10:41;;;;;;;35.43;14.50;;;;;;;17.44;36.47;102265.19;5110041;27;20027;-68
2022/01/16 06:13:07;;;;;;;28.87;14.40;;;;;;;17.22;37.78;102263.78;5112071;27;20035;-67
2022/01/16 06:15:34;;;;;;;29.27;13.20;;;;;;;17.56;36.51;102263.25;5112774;27;20027;-68
2022/01/16 06:18:00;;;;;;;30.27;13.67;;;;;;;17.37;36.65;102266.19;5131377;27;20019;-67
2022/01/16 06:20:27;;;;;;;28.60;13.70;;;;;;;17.51;36.40;102271.25;5110727;27;20578;-67
2022/01/16 06:22:56;;;;;;;28.57;12.57;;;;;;;17.74;35.59;102278.78;5130362;27;20027;-67
2022/01/16 06:25:23;;;;;;;24.63;11.37;;;;;;;17.91;35.17;102265.28;5112707;27;20015;-67
2022/01/16 06:27:48;;;;;;;23.30;12.13;;;;;;;18.63;34.71;102270.97;5112710;27;20022;-68
2022/01/16 06:30:14;;;;;;;22.00;10.83;;;;;;;18.24;34.51;102272.66;5130420;27;20032;-68
2022/01/16 06:32:40;;;;;;;24.30;10.23;;;;;;;18.12;34.55;102269.34;5128090;27;20038;-68
2022/01/16 06:35:06;;;;;;;22.13;9.10;;;;;;;18.10;34.65;102275.56;5112255;27;20753;-68
2022/01/16 06:37:32;;;;;;;19.03;8.20;;;;;;;18.46;33.95;102278.38;5111160;27;20031;-67
2022/01/16 06:39:57;;;;;;;19.60;7.80;;;;;;;18.94;33.57;102275.63;5112347;27;20031;-68
2022/01/16 06:42:23;;;;;;;20.03;8.63;;;;;;;18.28;34.67;102284.91;5131043;27;20050;-67
2022/01/16 06:44:48;;;;;;;11.97;6.97;;;;;;;18.30;33.32;102288.41;5128537;27;20561;-67
2022/01/16 06:47:14;;;;;;;13.17;5.70;;;;;;;17.44;34.58;102291.63;5130829;27;20539;-67
2022/01/16 06:49:39;;;;;;;10.13;4.33;;;;;;;18.52;33.86;102295.91;5112648;27;20085;-68
2022/01/16 06:52:05;;;;;;;9.70;3.97;;;;;;;18.11;33.20;102299.34;5111740;27;20019;-68
2022/01/16 06:54:30;;;;;;;6.23;3.90;;;;;;;17.92;33.78;102309.38;5110465;27;20487;-68
2022/01/16 06:56:56;;;;;;;7.73;3.47;;;;;;;17.50;34.00;102319.72;5111399;27;20031;-68
2022/01/16 06:59:21;;;;;;;9.37;4.03;;;;;;;16.92;34.46;102329.34;5110314;27;20045;-68
2022/01/16 07:01:46;;;;;;;5.37;3.17;;;;;;;18.30;33.01;102314.88;5111691;27;20028;-67
2022/01/16 07:04:12;;;;;;;5.43;3.47;;;;;;;17.26;33.44;102336.84;5105120;28;20023;-67
2022/01/16 07:06:37;;;;;;;5.43;3.30;;;;;;;17.90;33.52;102326.13;5091396;28;20023;-67
2022/01/16 07:09:03;;;;;;;8.33;3.77;;;;;;;17.27;33.60;102333.31;5109984;28;20020;-67
2022/01/16 07:11:28;;;;;;;6.33;3.60;;;;;;;17.63;33.07;102333.63;5101537;27;20054;-68
2022/01/16 07:13:53;;;;;;;7.00;3.93;;;;;;;17.32;33.75;102334.09;5128604;27;20414;-67
2022/01/16 07:16:22;;;;;;;6.33;3.73;;;;;;;17.85;32.80;102343.88;5111671;27;20023;-68
2022/01/16 07:18:47;;;;;;;6.07;3.83;;;;;;;18.00;33.29;102343.63;5129764;27;20494;-67
2022/01/16 07:21:14;;;;;;;11.07;3.90;;;;;;;18.06;33.29;102343.53;5129913;27;20056;-68
2022/01/16 07:23:44;;;;;;;8.37;4.30;;;;;;;17.20;34.63;102363.31;5129351;28;20571;-67
2022/01/16 07:26:10;;;;;;;7.40;3.40;;;;;;;16.10;36.57;102365.41;5109001;28;20156;-67
2022/01/16 07:28:36;;;;;;;6.07;3.50;;;;;;;18.11;33.37;102356.69;5106893;28;20514;-68
2022/01/16 07:31:01;;;;;;;7.97;3.70;;;;;;;17.27;34.53;102373.81;5129759;28;20031;-68
2022/01/16 07:33:27;;;;;;;7.77;3.47;;;;;;;17.50;34.83;102358.50;5111299;28;20042;-67
2022/01/16 07:35:52;;;;;;;7.73;4.03;;;;;;;18.28;33.01;102359.03;5125908;28;20510;-68
2022/01/16 07:38:17;;;;;;;8.27;4.37;;;;;;;16.88;36.01;102372.50;5111267;28;20026;-68
2022/01/16 07:40:43;;;;;;;11.23;4.40;;;;;;;18.41;33.33;102376.44;5110670;28;20475;-67
2022/01/16 07:43:08;;;;;;;9.70;3.67;;;;;;;18.22;33.41;102369.72;5091246;28;20084;-67
2022/01/16 07:45:34;;;;;;;9.40;3.83;;;;;;;17.74;34.88;102378.44;5129018;28;20055;-68
2022/01/16 07:47:59;;;;;;;8.00;3.13;;;;;;;18.31;34.15;102369.53;5091125;28;20115;-68
2022/01/16 07:50:25;;;;;;;9.07;3.83;;;;;;;18.27;33.75;102373.16;5109425;28;20019;-68
2022/01/16 07:52:51;;;;;;;8.90;4.27;;;;;;;18.35;33.84;102376.53;5130091;28;20031;-67
2022/01/16 07:55:17;;;;;;;7.83;4.57;;;;;;;18.59;33.79;102384.94;5129195;28;20061;-68
2022/01/16 07:57:43;;;;;;;6.23;4.20;;;;;;;17.41;36.24;102402.69;5092918;28;20027;-68
2022/01/16 08:00:10;;;;;;;10.37;4.60;;;;;;;17.02;36.93;102399.69;5090958;28;20024;-67
2022/01/16 08:02:36;;;;;;;10.90;4.23;;;;;;;18.79;34.00;102401.31;5108976;28;20038;-67
2022/01/16 08:05:01;;;;;;;7.90;4.23;;;;;;;18.69;33.43;102401.53;5110076;28;20030;-68
2022/01/16 08:07:26;;;;;;;13.93;4.13;;;;;;;20.25;31.40;102404.28;5110219;28;20417;-68
2022/01/16 08:09:52;;;;;;;9.53;4.70;;;;;;;19.28;32.47;102401.22;5121247;28;20030;-68
2022/01/16 08:12:17;;;;;;;8.30;4.60;;;;;;;18.78;33.92;102402.22;5111130;28;20042;-67
2022/01/16 08:14:42;;;;;;;8.53;4.70;;;;;;;18.14;34.38;102405.13;5106618;28;20355;-68
2022/01/16 08:17:08;;;;;;;9.83;5.10;;;;;;;18.61;34.26;102394.56;5128545;28;20501;-67
2022/01/16 08:19:33;;;;;;;10.43;4.63;;;;;;;18.38;34.30;102397.66;5109811;28;20131;-68
2022/01/16 08:21:59;;;;;;;13.23;4.87;;;;;;;19.17;32.75;102392.66;5123654;28;20130;-68
2022/01/16 08:24:24;;;;;;;8.03;4.37;;;;;;;19.39;32.58;102393.91;5109757;28;20023;-68
2022/01/16 08:26:51;;;;;;;11.27;5.77;;;;;;;18.14;35.39;102393.66;5110394;28;20031;-67
2022/01/16 08:29:17;;;;;;;12.13;5.20;;;;;;;19.69;33.06;102382.59;5128112;28;20435;-68
2022/01/16 08:31:42;;;;;;;13.07;6.33;;;;;;;17.37;36.66;102390.41;5094739;28;20035;-67
2022/01/16 08:34:07;;;;;;;13.40;6.03;;;;;;;18.63;34.94;102391.91;5108018;27;20080;-67
2022/01/16 08:36:33;;;;;;;16.37;7.43;;;;;;;19.36;33.91;102391.31;5132655;27;20027;-67
2022/01/16 08:38:59;;;;;;;23.03;9.67;;;;;;;18.55;35.14;102377.97;5108421;27;20027;-68
2022/01/16 08:41:25;;;;;;;31.83;12.03;;;;;;;18.22;36.42;102398.84;5124052;27;20433;-68
2022/01/16 08:43:51;;;;;;;27.23;11.03;;;;;;;18.24;37.16;102397.88;5095684;27;20479;-68
2022/01/16 08:46:18;;;;;;;30.80;11.53;;;;;;;17.80;37.13;102399.47;5132514;27;20430;-68
2022/01/16 08:48:44;;;;;;;30.33;12.97;;;;;;;17.54;37.39;102403.38;5114240;27;20114;-68
2022/01/16 08:51:09;;;;;;;44.73;19.07;;;;;;;18.29;36.69;102405.78;5113283;27;20122;-68
2022/01/16 08:53:35;;;;;;;43.70;16.90;;;;;;;18.13;37.07;102419.28;5129280;27;20074;-68
2022/01/16 08:56:00;;;;;;;38.90;15.63;;;;;;;18.04;37.11;102430.00;5105037;28;20070;-68
2022/01/16 08:58:27;;;;;;;33.33;13.33;;;;;;;17.46;38.47;102427.28;5097744;27;20105;-68
2022/01/16 09:00:52;;;;;;;39.00;15.40;;;;;;;18.85;35.84;102425.91;5128058;27;20040;-68
2022/01/16 09:03:20;;;;;;;43.20;15.17;;;;;;;18.22;36.38;102433.25;5125613;27;20038;-68
2022/01/16 09:05:46;;;;;;;42.77;15.57;;;;;;;17.24;38.72;102431.09;5130706;27;20519;-68
2022/01/16 09:08:12;;;;;;;41.57;15.23;;;;;;;17.23;39.51;102434.66;5096490;27;20136;-68
2022/01/16 09:10:37;;;;;;;44.03;16.10;;;;;;;17.38;39.20;102429.16;5122319;27;20466;-68
2022/01/16 09:13:04;;;;;;;44.57;16.33;;;;;;;17.47;39.21;102430.78;5111561;27;20076;-68
2022/01/16 09:15:30;;;;;;;50.17;16.97;;;;;;;17.97;37.86;102433.66;5095151;27;20214;-67
2022/01/16 09:17:55;;;;;;;44.00;16.47;;;;;;;17.53;38.39;102443.03;5101258;28;20115;-69
2022/01/16 09:20:21;;;;;;;44.73;16.73;;;;;;;18.27;37.53;102437.56;5101971;27;20067;-69
2022/01/16 09:22:48;;;;;;;49.17;17.37;;;;;;;17.71;38.12;102439.25;5101080;27;20127;-69
2022/01/16 09:25:14;;;;;;;51.47;17.20;;;;;;;16.70;40.24;102437.81;5123473;27;20027;-69
2022/01/16 09:27:40;;;;;;;52.20;18.27;;;;;;;18.53;36.84;102459.19;5056360;27;20129;-69
2022/01/16 09:30:08;;;;;;;49.83;18.47;;;;;;;18.21;37.00;102452.66;5095225;27;20300;-69
2022/01/16 09:32:35;;;;;;;52.47;19.07;;;;;;;18.31;36.61;102462.19;5092265;28;20020;-69
2022/01/16 09:35:05;;;;;;;62.33;19.50;;;;;;;18.72;36.94;102465.88;5096492;28;20445;-69
2022/01/16 09:37:31;;;;;;;55.77;19.23;;;;;;;18.92;35.95;102459.38;5099900;27;20035;-69
2022/01/16 09:39:58;;;;;;;48.93;19.33;;;;;;;18.70;36.41;102462.41;5121593;27;20499;-67
2022/01/16 09:42:26;;;;;;;55.10;18.97;;;;;;;19.02;36.12;102463.59;5102298;27;20027;-67
2022/01/16 09:44:52;;;;;;;57.27;20.30;;;;;;;17.65;38.29;102469.31;5107675;28;20394;-69
2022/01/16 09:47:17;;;;;;;57.70;19.43;;;;;;;18.09;37.58;102467.84;5092795;28;20040;-69
2022/01/16 09:49:44;;;;;;;57.43;19.20;;;;;;;19.65;34.54;102475.53;5113010;27;20027;-69
2022/01/16 09:52:09;;;;;;;62.53;19.27;;;;;;;16.30;40.58;102483.06;5118642;27;20402;-66
2022/01/16 09:54:37;;;;;;;55.83;19.30;;;;;;;18.69;36.48;102471.25;5110160;27;20031;-69
2022/01/16 09:57:03;;;;;;;67.03;21.00;;;;;;;18.37;36.70;102480.63;5112847;27;20436;-69
2022/01/16 09:59:29;;;;;;;68.57;20.40;;;;;;;16.49;40.94;102493.47;5111779;27;20023;-69
2022/01/16 10:01:54;;;;;;;56.30;19.63;;;;;;;16.35;41.34;102485.66;5103375;27;20031;-69
2022/01/16 10:04:39;;;;;;;60.20;19.77;;;;;;;17.74;38.73;102495.63;5113302;27;20064;-69
2022/01/16 10:07:09;;;;;;;59.43;20.23;;;;;;;17.04;39.34;102494.75;5113130;27;20023;-69
2022/01/16 10:09:40;;;;;;;61.73;18.73;;;;;;;17.95;37.99;102499.78;5112736;27;20019;-69
2022/01/16 10:12:15;;;;;;;68.30;21.40;;;;;;;18.74;36.76;102495.88;5112060;27;20028;-69
2022/01/16 10:14:47;;;;;;;57.70;19.53;;;;;;;17.27;40.05;102505.91;5092213;28;20023;-69
2022/01/16 10:17:24;;;;;;;55.60;19.07;;;;;;;18.02;37.97;102511.16;5111247;27;20120;-70
2022/01/16 10:20:05;;;;;;;72.43;22.63;;;;;;;17.12;39.63;102499.03;5097623;27;20101;-69
2022/01/16 10:22:43;;;;;;;60.37;18.80;;;;;;;17.43;38.75;102511.91;5109371;27;20043;-69
2022/01/16 10:25:10;;;;;;;70.07;20.03;;;;;;;16.88;39.36;102508.06;5092501;28;20036;-69
2022/01/16 10:27:37;;;;;;;63.73;19.97;;;;;;;17.92;38.12;102510.41;5092742;28;20023;-69
2022/01/16 10:30:07;;;;;;;66.90;20.73;;;;;;;18.34;37.32;102509.78;5116684;27;20027;-69
2022/01/16 10:32:36;;;;;;;61.73;19.07;;;;;;;18.15;37.39;102506.56;5112660;27;20023;-70
2022/01/16 10:35:11;;;;;;;62.13;19.90;;;;;;;17.40;38.91;102511.94;5113098;27;20064;-69
2022/01/16 10:37:38;;;;;;;62.43;19.80;;;;;;;17.08;39.53;102514.94;5130678;27;20026;-69
2022/01/16 10:40:14;;;;;;;62.87;20.00;;;;;;;17.35;38.70;102524.34;5103013;28;20028;-69
2022/01/16 10:42:41;;;;;;;70.03;21.20;;;;;;;16.71;40.54;102521.44;5092551;28;20051;-69
2022/01/16 10:45:12;;;;;;;58.30;18.10;;;;;;;17.73;38.76;102515.03;5109710;28;20026;-69
2022/01/16 10:47:51;;;;;;;69.77;19.33;;;;;;;18.16;37.86;102528.59;5092349;28;20383;-69
2022/01/16 10:50:19;;;;;;;67.20;20.53;;;;;;;18.23;37.79;102519.66;5102203;27;20038;-69
2022/01/16 10:52:58;;;;;;;68.23;19.60;;;;;;;18.33;38.52;102513.34;5130810;27;20050;-69
2022/01/16 10:55:30;;;;;;;69.97;18.77;;;;;;;17.38;40.05;102518.13;5111560;27;20039;-69
2022/01/16 10:58:15;;;;;;;72.37;20.07;;;;;;;18.28;38.37;102523.97;5111721;27;20055;-69
2022/01/16 11:00:44;;;;;;;52.07;18.93;;;;;;;17.95;38.99;102512.13;5112167;27;20106;-69
2022/01/16 11:03:12;;;;;;;60.60;20.47;;;;;;;17.92;38.61;102520.13;5101372;27;20114;-69
2022/01/16 11:05:41;;;;;;;71.63;22.57;;;;;;;17.51;40.19;102518.88;5111724;27;20061;-69
2022/01/16 11:08:15;;;;;;;65.87;21.07;;;;;;;17.65;39.24;102511.63;5112140;28;20041;-68
2022/01/16 11:10:46;;;;;;;63.80;19.63;;;;;;;18.68;38.28;102511.00;5112534;27;20038;-70
2022/01/16 11:13:18;;;;;;;75.83;22.23;;;;;;;17.94;39.09;102502.44;5091301;28;20358;-69
2022/01/16 11:15:48;;;;;;;61.67;19.33;;;;;;;19.20;36.97;102490.63;5091871;28;20024;-69
2022/01/16 11:18:15;;;;;;;68.20;22.73;;;;;;;18.24;38.61;102506.41;5109709;28;20437;-69
2022/01/16 11:20:45;;;;;;;72.50;21.17;;;;;;;18.11;39.38;102499.56;5091717;28;20050;-69
2022/01/16 11:25:39;;;;;;;63.80;22.70;;;;;;;19.12;37.92;102496.06;5130061;28;20038;-69
2022/01/16 11:28:18;;;;;;;55.20;19.47;;;;;;;18.01;39.43;102506.78;5130461;28;20580;-69
2022/01/16 11:30:53;;;;;;;66.57;21.13;;;;;;;19.46;37.74;102504.22;5092328;28;20019;-69
2022/01/16 11:33:20;;;;;;;62.67;20.77;;;;;;;18.44;38.58;102521.97;5091355;28;20031;-69
2022/01/16 11:35:53;;;;;;;56.43;19.93;;;;;;;17.05;41.75;102507.94;5105881;28;20031;-69
2022/01/16 11:38:20;;;;;;;60.07;21.00;;;;;;;19.50;37.52;102513.84;5112334;28;20436;-69
2022/01/16 11:40:50;;;;;;;65.50;20.63;;;;;;;17.11;40.98;102518.41;5111285;28;20042;-69
2022/01/16 11:43:23;;;;;;;47.10;17.53;;;;;;;19.07;38.25;102520.03;5091906;28;20028;-69
2022/01/16 11:45:48;;;;;;;48.97;17.97;;;;;;;17.59;40.68;102517.00;5092013;28;20078;-70
2022/01/16 11:48:18;;;;;;;44.77;17.70;;;;;;;20.29;35.92;102504.16;5109772;28;20047;-69
2022/01/16 11:50:44;;;;;;;53.97;16.23;;;;;;;20.04;35.84;102510.97;5091913;28;20045;-69
2022/01/16 11:53:10;;;;;;;46.67;17.30;;;;;;;18.10;38.42;102506.63;5126816;28;20505;-69